Time;durP1;ratioP1;P1;durP2;ratioP2;P2;SDS_P1;SDS_P2;PMS_P1;PMS_P2;Temp;Humidity;BMP_temperature;BMP_pressure;BME280_temperature;BME280_humidity;BME280_pressure;Samples;Min_cycle;Max_cycle;Signal;HPM_P1;HPM_P2
2022/01/05 00:01:28;;;;;;;1.53;1.13;;;3.90;99.90;;;;;;5117891;28;20191;-43
2022/01/05 00:03:54;;;;;;;0.80;0.67;;;3.90;99.90;;;;;;5116716;28;20416;-43
2022/01/05 00:06:19;;;;;;;2.17;1.00;;;3.80;99.90;;;;;;5116633;28;20493;-44
2022/01/05 00:08:45;;;;;;;1.40;0.80;;;3.80;99.90;;;;;;5116369;28;20698;-42
2022/01/05 00:11:11;;;;;;;1.50;1.00;;;3.90;99.90;;;;;;5098259;28;20175;-44
2022/01/05 00:13:40;;;;;;;1.30;0.90;;;3.80;99.90;;;;;;5116902;28;20168;-43
2022/01/05 00:16:05;;;;;;;1.20;1.00;;;3.80;99.90;;;;;;5116932;28;20509;-44
2022/01/05 00:18:32;;;;;;;1.00;0.80;;;3.90;99.90;;;;;;5117289;28;20497;-43
2022/01/05 00:20:59;;;;;;;0.90;0.70;;;3.80;99.90;;;;;;5118662;28;20232;-43
2022/01/05 00:23:25;;;;;;;1.00;0.80;;;3.90;99.90;;;;;;5118437;28;20433;-43
2022/01/05 00:25:54;;;;;;;1.10;0.93;;;3.80;99.90;;;;;;5083737;28;20426;-43
2022/01/05 00:28:20;;;;;;;1.60;0.73;;;3.80;99.90;;;;;;5118472;28;20472;-43
2022/01/05 00:30:45;;;;;;;1.03;0.80;;;3.80;99.90;;;;;;5118406;28;20485;-43
2022/01/05 00:33:12;;;;;;;1.10;0.90;;;3.80;99.90;;;;;;5118280;28;20179;-43
2022/01/05 00:35:38;;;;;;;1.17;0.80;;;3.90;99.90;;;;;;5100304;28;20274;-44
2022/01/05 00:38:03;;;;;;;1.10;0.80;;;3.80;99.90;;;;;;5117693;28;20517;-44
2022/01/05 00:40:29;;;;;;;1.10;0.80;;;3.90;99.90;;;;;;5118346;28;20554;-43
2022/01/05 00:42:55;;;;;;;1.03;0.80;;;3.90;99.90;;;;;;5118096;28;20239;-43
2022/01/05 00:45:21;;;;;;;1.00;0.80;;;3.90;99.90;;;;;;5100330;28;20710;-44
2022/01/05 00:47:46;;;;;;;0.80;0.60;;;3.90;99.90;;;;;;5118017;28;20211;-44
2022/01/05 00:50:12;;;;;;;0.90;0.70;;;3.90;99.90;;;;;;5121360;28;20187;-44
2022/01/05 00:52:38;;;;;;;2.07;0.90;;;3.90;99.90;;;;;;5122416;28;20187;-44
2022/01/05 00:55:04;;;;;;;1.17;0.77;;;3.90;99.90;;;;;;5123019;28;20198;-43
2022/01/05 00:57:30;;;;;;;1.10;0.70;;;3.90;99.90;;;;;;5104920;28;20703;-43
2022/01/05 00:59:56;;;;;;;0.90;0.60;;;3.90;99.90;;;;;;5122273;28;20421;-44
2022/01/05 01:02:21;;;;;;;1.70;0.90;;;4.00;99.90;;;;;;5103742;28;20644;-43
2022/01/05 01:04:47;;;;;;;1.20;0.83;;;4.00;99.90;;;;;;5122082;28;20463;-44
2022/01/05 01:07:13;;;;;;;1.33;0.70;;;4.00;99.90;;;;;;5104355;28;20460;-44
2022/01/05 01:09:38;;;;;;;1.00;0.67;;;4.00;99.90;;;;;;5103883;28;20204;-44
2022/01/05 01:12:05;;;;;;;1.23;0.80;;;4.00;99.90;;;;;;5121652;28;20259;-43
2022/01/05 01:14:30;;;;;;;1.10;0.80;;;4.00;99.90;;;;;;5122099;28;20212;-43
2022/01/05 01:16:56;;;;;;;1.00;0.63;;;4.00;99.90;;;;;;5122346;28;20414;-43
2022/01/05 01:19:22;;;;;;;1.53;0.70;;;4.00;99.90;;;;;;5121792;28;20192;-43
2022/01/05 01:21:47;;;;;;;0.80;0.40;;;4.00;99.90;;;;;;5121907;28;20514;-43
2022/01/05 01:24:15;;;;;;;3.13;0.83;;;4.00;99.90;;;;;;5121894;28;20536;-42
2022/01/05 01:26:43;;;;;;;1.10;0.40;;;4.00;99.90;;;;;;5104101;28;20179;-43
2022/01/05 01:29:09;;;;;;;1.00;0.63;;;4.00;99.90;;;;;;5121588;28;20460;-44
2022/01/05 01:31:34;;;;;;;1.30;0.80;;;4.00;99.90;;;;;;5121881;28;20491;-44
2022/01/05 01:34:00;;;;;;;1.50;0.70;;;4.00;99.90;;;;;;5121768;28;20570;-42
2022/01/05 01:36:26;;;;;;;1.17;0.60;;;4.00;99.90;;;;;;5121520;28;20184;-43
2022/01/05 01:38:51;;;;;;;2.13;0.60;;;4.10;99.90;;;;;;5121541;28;20532;-43
2022/01/05 01:41:17;;;;;;;0.70;0.40;;;4.10;99.90;;;;;;5121374;28;20203;-43
2022/01/05 01:43:43;;;;;;;0.80;0.50;;;4.10;99.90;;;;;;5121631;28;20261;-44
2022/01/05 01:46:09;;;;;;;0.80;0.47;;;4.20;99.90;;;;;;5121260;28;20851;-44
2022/01/05 01:48:35;;;;;;;1.10;0.50;;;4.20;99.90;;;;;;5121403;28;20551;-43
2022/01/05 01:51:03;;;;;;;5.00;0.70;;;4.10;99.90;;;;;;5121226;28;20226;-44
2022/01/05 01:53:29;;;;;;;1.10;0.83;;;4.20;99.90;;;;;;5121611;28;20406;-44
2022/01/05 01:55:58;;;;;;;1.30;0.77;;;4.10;99.90;;;;;;5102268;28;20840;-43
2022/01/05 01:58:25;;;;;;;1.00;0.60;;;4.20;99.90;;;;;;5120841;28;20414;-44
2022/01/05 02:00:51;;;;;;;1.03;0.70;;;4.20;99.90;;;;;;5120285;28;20441;-42
2022/01/05 02:03:17;;;;;;;2.73;1.07;;;4.20;99.90;;;;;;5121263;28;20426;-44
2022/01/05 02:05:42;;;;;;;1.13;0.73;;;4.20;99.90;;;;;;5121105;28;20544;-42
2022/01/05 02:08:08;;;;;;;1.13;0.80;;;4.30;99.90;;;;;;5120823;28;20211;-42
2022/01/05 02:13:58;;;;;;;1.03;0.77;;;4.30;99.90;;;;;;5120400;28;20236;-44
2022/01/05 02:16:29;;;;;;;0.93;0.80;;;4.30;99.90;;;;;;5120819;28;20430;-43
2022/01/05 02:18:58;;;;;;;1.77;1.10;;;4.30;99.90;;;;;;5103863;28;20445;-44
2022/01/05 02:21:25;;;;;;;1.80;1.10;;;4.30;99.90;;;;;;5120941;28;20705;-44
2022/01/05 02:23:50;;;;;;;1.40;1.00;;;4.30;99.90;;;;;;5120778;28;20530;-44
2022/01/05 02:26:16;;;;;;;1.67;1.20;;;4.30;99.90;;;;;;5120400;28;20828;-44
2022/01/05 02:28:42;;;;;;;1.73;1.03;;;4.30;99.90;;;;;;5120121;28;20249;-43
2022/01/05 02:31:08;;;;;;;0.97;0.83;;;4.30;99.90;;;;;;5120711;28;20421;-44
2022/01/05 02:33:35;;;;;;;1.27;1.10;;;4.40;99.90;;;;;;5102449;28;20413;-42
2022/01/05 02:36:04;;;;;;;1.53;1.20;;;4.30;99.90;;;;;;5120254;28;20418;-43
2022/01/05 02:38:29;;;;;;;1.57;1.33;;;4.40;99.90;;;;;;5120069;28;20429;-44
2022/01/05 02:40:55;;;;;;;2.07;1.20;;;4.30;99.90;;;;;;5120258;28;20417;-42
2022/01/05 02:43:21;;;;;;;1.40;1.00;;;4.40;99.90;;;;;;5102030;28;20235;-42
2022/01/05 02:45:47;;;;;;;1.37;1.20;;;4.40;99.90;;;;;;5120238;28;20405;-42
2022/01/05 02:48:13;;;;;;;1.20;0.90;;;4.30;99.90;;;;;;5120218;28;20512;-43
2022/01/05 02:50:38;;;;;;;2.13;1.00;;;4.40;99.90;;;;;;5120434;28;20406;-44
2022/01/05 02:53:07;;;;;;;1.10;0.80;;;4.40;99.90;;;;;;5119862;28;20528;-43
2022/01/05 02:55:35;;;;;;;1.13;1.03;;;4.40;99.90;;;;;;5119798;28;20240;-44
2022/01/05 02:58:01;;;;;;;2.53;1.27;;;4.40;99.90;;;;;;5119722;28;20439;-43
2022/01/05 03:00:27;;;;;;;1.50;1.07;;;4.30;99.90;;;;;;5119918;28;20508;-43
2022/01/05 03:02:52;;;;;;;1.33;1.13;;;4.30;99.90;;;;;;5119873;28;20465;-43
2022/01/05 03:05:19;;;;;;;1.53;1.10;;;4.40;99.90;;;;;;5120156;28;20180;-44
2022/01/05 03:07:45;;;;;;;1.50;0.97;;;4.40;99.90;;;;;;5118988;28;20280;-43
2022/01/05 03:10:13;;;;;;;2.20;0.80;;;4.30;99.90;;;;;;5119723;28;20398;-42
2022/01/05 03:12:41;;;;;;;1.03;0.67;;;4.30;99.90;;;;;;5119841;28;20840;-43
2022/01/05 03:15:07;;;;;;;1.10;0.60;;;4.30;99.90;;;;;;5119592;28;20519;-44
2022/01/05 03:17:33;;;;;;;1.07;0.83;;;4.30;99.90;;;;;;5101777;28;20575;-44
2022/01/05 03:19:59;;;;;;;1.20;0.93;;;4.30;99.90;;;;;;5119257;28;20422;-43
2022/01/05 03:22:25;;;;;;;1.00;0.80;;;4.30;99.90;;;;;;5119274;28;20184;-44
2022/01/05 03:24:50;;;;;;;1.10;0.90;;;4.30;99.90;;;;;;5119221;28;20241;-43
2022/01/05 03:27:16;;;;;;;0.80;0.50;;;4.30;99.90;;;;;;5119372;28;20188;-44
2022/01/05 03:29:42;;;;;;;1.40;0.90;;;4.30;99.90;;;;;;5119209;28;20203;-44
2022/01/05 03:32:08;;;;;;;1.93;0.73;;;4.30;99.90;;;;;;5119623;28;20183;-43
2022/01/05 03:34:35;;;;;;;2.27;0.57;;;4.30;99.90;;;;;;5119147;28;20501;-44
2022/01/05 03:37:01;;;;;;;1.50;0.60;;;4.30;99.90;;;;;;5118483;28;20440;-43
2022/01/05 03:39:27;;;;;;;1.00;0.60;;;4.20;99.90;;;;;;5118913;28;20844;-44
2022/01/05 03:41:52;;;;;;;1.60;0.60;;;4.20;99.90;;;;;;5119031;28;20224;-43
2022/01/05 03:44:18;;;;;;;1.67;0.50;;;4.20;99.90;;;;;;5119101;28;20236;-44
2022/01/05 03:46:44;;;;;;;0.87;0.50;;;4.20;99.90;;;;;;5118870;28;20195;-43
2022/01/05 03:49:09;;;;;;;1.20;0.63;;;4.10;99.90;;;;;;5118955;28;20203;-43
2022/01/05 03:51:35;;;;;;;1.00;0.60;;;4.10;99.90;;;;;;5118842;28;20178;-44
2022/01/05 03:54:00;;;;;;;0.90;0.50;;;4.10;99.90;;;;;;5119143;28;20454;-43
2022/01/05 03:56:26;;;;;;;1.00;0.57;;;4.10;99.90;;;;;;5118814;28;20241;-43
2022/01/05 03:58:52;;;;;;;1.23;0.50;;;4.10;99.90;;;;;;5118687;28;20566;-43
2022/01/05 04:01:17;;;;;;;1.03;0.60;;;4.10;99.90;;;;;;5118856;28;20176;-42
2022/01/05 04:03:43;;;;;;;0.80;0.50;;;4.10;99.90;;;;;;5119013;28;20289;-43
2022/01/05 04:06:09;;;;;;;0.90;0.60;;;4.10;99.90;;;;;;5118772;28;20196;-43
2022/01/05 04:08:34;;;;;;;1.30;0.80;;;4.10;99.90;;;;;;5118731;28;20280;-42
2022/01/05 04:11:00;;;;;;;0.87;0.63;;;4.10;99.90;;;;;;5118000;28;20179;-42
2022/01/05 04:13:26;;;;;;;0.60;0.33;;;4.10;99.90;;;;;;5118320;28;20172;-44
2022/01/05 04:15:51;;;;;;;1.20;0.60;;;4.10;99.90;;;;;;5118838;28;20263;-41
2022/01/05 04:18:17;;;;;;;0.80;0.50;;;4.10;99.90;;;;;;5118383;28;20569;-43
2022/01/05 04:20:42;;;;;;;0.70;0.40;;;4.10;99.90;;;;;;5118572;28;20474;-42
2022/01/05 04:23:08;;;;;;;1.00;0.67;;;4.10;99.90;;;;;;5117929;28;20581;-41
2022/01/05 04:25:34;;;;;;;0.80;0.50;;;4.10;99.90;;;;;;5118292;28;20183;-42
2022/01/05 04:28:04;;;;;;;0.97;0.40;;;4.00;99.90;;;;;;5117857;28;20223;-44
2022/01/05 04:30:30;;;;;;;0.80;0.40;;;3.90;99.90;;;;;;5118133;28;20398;-42
2022/01/05 04:32:55;;;;;;;0.77;0.33;;;3.90;99.90;;;;;;5118312;28;20502;-42
2022/01/05 04:35:26;;;;;;;0.70;0.40;;;3.90;99.90;;;;;;5116995;28;20179;-41
2022/01/05 04:37:52;;;;;;;0.70;0.33;;;3.90;99.90;;;;;;5117183;28;20176;-44
2022/01/05 04:40:18;;;;;;;0.60;0.30;;;3.90;99.90;;;;;;5117389;28;20569;-42
2022/01/05 04:42:43;;;;;;;0.60;0.30;;;3.80;99.90;;;;;;5116242;28;20485;-42
2022/01/05 04:45:09;;;;;;;0.83;0.43;;;3.80;99.90;;;;;;5117152;28;20179;-42
2022/01/05 04:47:35;;;;;;;0.70;0.43;;;3.80;99.90;;;;;;5116601;28;20191;-43
2022/01/05 04:50:00;;;;;;;0.97;0.37;;;3.90;99.90;;;;;;5116880;28;20464;-43
2022/01/05 04:52:26;;;;;;;1.07;0.60;;;3.90;99.90;;;;;;5116716;28;20206;-42
2022/01/05 04:54:52;;;;;;;0.80;0.60;;;3.80;99.90;;;;;;5115714;28;20175;-40
2022/01/05 04:57:17;;;;;;;1.17;0.40;;;3.80;99.90;;;;;;5116366;28;20176;-41
2022/01/05 04:59:43;;;;;;;0.80;0.40;;;3.80;99.90;;;;;;5097730;28;20555;-42
2022/01/05 05:02:11;;;;;;;0.70;0.40;;;3.80;99.90;;;;;;5114594;28;20176;-43
2022/01/05 05:04:37;;;;;;;0.80;0.40;;;3.80;99.90;;;;;;5113900;28;20413;-46
2022/01/05 05:07:03;;;;;;;0.80;0.43;;;3.90;99.90;;;;;;5114267;28;20484;-46
2022/01/05 05:09:29;;;;;;;1.00;0.60;;;3.80;99.90;;;;;;5097829;28;20525;-46
2022/01/05 05:11:54;;;;;;;0.83;0.40;;;3.80;99.90;;;;;;5116191;28;20426;-46
2022/01/05 05:14:20;;;;;;;0.70;0.50;;;3.80;99.90;;;;;;5116157;28;20275;-46
2022/01/05 05:16:45;;;;;;;1.17;0.80;;;3.80;99.90;;;;;;5117181;28;20187;-46
2022/01/05 05:19:11;;;;;;;3.37;0.60;;;3.80;99.90;;;;;;5117946;28;20168;-46
2022/01/05 05:21:37;;;;;;;1.07;0.57;;;3.80;99.90;;;;;;5099818;28;20478;-46
2022/01/05 05:24:02;;;;;;;2.13;0.80;;;3.80;99.90;;;;;;5117690;28;20183;-46
2022/01/05 05:26:28;;;;;;;1.20;0.70;;;3.80;99.90;;;;;;5117357;28;20168;-46
2022/01/05 05:28:54;;;;;;;0.87;0.70;;;3.80;99.90;;;;;;5117901;28;20240;-46
2022/01/05 05:31:19;;;;;;;1.40;1.10;;;3.80;99.90;;;;;;5117513;28;20169;-48
2022/01/05 05:33:45;;;;;;;1.60;1.20;;;3.80;99.90;;;;;;5116910;28;20477;-46
2022/01/05 05:36:11;;;;;;;1.43;1.33;;;3.80;99.90;;;;;;5117681;28;20172;-47
2022/01/05 05:38:36;;;;;;;1.50;1.20;;;3.90;99.90;;;;;;5120461;28;20191;-46
2022/01/05 05:41:02;;;;;;;1.40;1.27;;;3.90;99.90;;;;;;5120722;28;20168;-46
2022/01/05 05:43:28;;;;;;;1.50;1.20;;;3.90;99.90;;;;;;5120154;28;20512;-46
2022/01/05 05:45:53;;;;;;;1.13;0.60;;;4.00;99.90;;;;;;5101580;28;20566;-46
2022/01/05 05:48:24;;;;;;;0.97;0.60;;;4.00;99.90;;;;;;5119680;28;20315;-46
2022/01/05 05:50:50;;;;;;;1.00;0.50;;;3.70;99.90;;;;;;5119886;28;20168;-46
2022/01/05 05:53:15;;;;;;;1.27;0.80;;;3.30;99.90;;;;;;5120507;28;20532;-46
2022/01/05 05:55:41;;;;;;;1.87;0.70;;;3.10;99.90;;;;;;5120622;28;20243;-46
2022/01/05 05:58:07;;;;;;;1.10;0.80;;;2.90;99.90;;;;;;5120732;28;20184;-46
2022/01/05 06:00:32;;;;;;;1.10;0.90;;;2.70;99.90;;;;;;5120599;28;20178;-46
2022/01/05 06:02:59;;;;;;;1.33;0.87;;;2.60;99.90;;;;;;5120884;28;20176;-46
2022/01/05 06:05:24;;;;;;;1.40;1.07;;;2.50;99.90;;;;;;5121240;28;20179;-46
2022/01/05 06:07:50;;;;;;;2.70;0.90;;;2.40;99.90;;;;;;5120250;28;20918;-46
2022/01/05 06:10:16;;;;;;;2.03;0.80;;;2.40;99.90;;;;;;5102901;28;20581;-46
2022/01/05 06:12:41;;;;;;;1.30;0.90;;;2.30;99.90;;;;;;5121018;28;20187;-45
2022/01/05 06:15:08;;;;;;;1.37;1.20;;;2.30;99.90;;;;;;5120800;28;20730;-46
2022/01/05 06:17:33;;;;;;;2.03;0.97;;;2.20;99.90;;;;;;5119662;28;20219;-46
2022/01/05 06:19:59;;;;;;;1.07;0.80;;;2.20;99.90;;;;;;5120124;28;20421;-46
2022/01/05 06:22:26;;;;;;;1.60;1.30;;;2.20;99.90;;;;;;5119976;28;20446;-46
2022/01/05 06:24:52;;;;;;;2.67;1.30;;;2.20;99.90;;;;;;5119791;28;20168;-46
2022/01/05 06:27:17;;;;;;;1.97;1.30;;;2.20;99.90;;;;;;5119963;28;20406;-46
2022/01/05 06:29:43;;;;;;;1.40;1.30;;;2.20;99.90;;;;;;5119677;28;20200;-46
2022/01/05 06:32:09;;;;;;;2.70;1.40;;;2.30;99.90;;;;;;5119856;28;20176;-47
2022/01/05 06:34:34;;;;;;;1.60;1.20;;;2.30;99.90;;;;;;5118907;28;20180;-46
2022/01/05 06:37:00;;;;;;;1.50;0.93;;;2.30;99.90;;;;;;5118922;28;20832;-45
2022/01/05 06:39:26;;;;;;;1.10;1.00;;;2.30;99.90;;;;;;5117293;28;20186;-45
2022/01/05 06:41:51;;;;;;;1.50;1.20;;;2.20;99.90;;;;;;5117432;28;20231;-45
2022/01/05 06:44:17;;;;;;;1.60;1.07;;;2.20;99.90;;;;;;5116755;28;20188;-45
2022/01/05 06:46:43;;;;;;;2.40;1.10;;;2.20;99.90;;;;;;5116753;28;20227;-37
2022/01/05 06:49:08;;;;;;;1.37;1.20;;;2.20;99.90;;;;;;5117165;28;20219;-36
2022/01/05 06:51:34;;;;;;;2.00;1.20;;;2.20;99.90;;;;;;5118086;28;20176;-41
2022/01/05 06:54:00;;;;;;;1.70;1.60;;;2.30;99.90;;;;;;5117620;28;20532;-37
2022/01/05 06:56:28;;;;;;;1.43;1.10;;;2.20;99.90;;;;;;5118999;28;20174;-36
2022/01/05 06:58:53;;;;;;;1.00;0.80;;;2.20;99.90;;;;;;5118178;28;20176;-36
2022/01/05 07:01:19;;;;;;;1.50;1.20;;;2.20;99.90;;;;;;5119299;28;20420;-36
2022/01/05 07:03:45;;;;;;;3.40;1.50;;;2.20;99.90;;;;;;5119138;28;20286;-36
2022/01/05 07:06:10;;;;;;;1.70;1.50;;;2.20;99.90;;;;;;5119547;28;20180;-37
2022/01/05 07:08:36;;;;;;;1.70;1.40;;;2.10;99.90;;;;;;5118506;28;20234;-36
2022/01/05 07:11:01;;;;;;;2.00;1.50;;;2.20;99.90;;;;;;5118528;28;20475;-36
2022/01/05 07:13:27;;;;;;;1.73;1.17;;;2.20;99.90;;;;;;5101340;28;20183;-37
2022/01/05 07:15:53;;;;;;;1.50;1.40;;;2.10;99.90;;;;;;5117902;28;20197;-35
2022/01/05 07:18:18;;;;;;;1.93;1.60;;;2.10;99.90;;;;;;5117630;28;20187;-36
2022/01/05 07:20:45;;;;;;;2.00;1.60;;;2.10;99.90;;;;;;5099769;28;20187;-36
2022/01/05 07:23:10;;;;;;;1.63;1.53;;;2.10;99.90;;;;;;5116713;28;20670;-36
2022/01/05 07:25:36;;;;;;;2.77;1.97;;;2.10;99.90;;;;;;5116863;28;20410;-36
2022/01/05 07:28:02;;;;;;;2.20;1.93;;;2.10;99.90;;;;;;5116843;28;20203;-36
2022/01/05 07:30:28;;;;;;;3.77;2.97;;;2.10;99.90;;;;;;5116467;28;20629;-37
2022/01/05 07:32:55;;;;;;;2.27;2.07;;;2.20;99.90;;;;;;5116919;28;20549;-37
2022/01/05 07:35:24;;;;;;;3.70;2.50;;;2.20;99.90;;;;;;5116879;28;20179;-36
2022/01/05 07:37:49;;;;;;;2.47;2.27;;;2.20;99.90;;;;;;5116294;28;20417;-36
2022/01/05 07:40:15;;;;;;;5.17;2.57;;;2.10;99.90;;;;;;5116507;28;20406;-37
2022/01/05 07:42:41;;;;;;;4.77;2.50;;;1.90;99.90;;;;;;5094803;28;20221;-37
2022/01/05 07:45:09;;;;;;;5.87;2.30;;;1.90;99.90;;;;;;5097174;28;20173;-37
2022/01/05 07:47:35;;;;;;;2.13;1.93;;;1.80;99.90;;;;;;5098203;28;20169;-37
2022/01/05 07:50:00;;;;;;;2.70;2.47;;;1.80;99.90;;;;;;5098663;28;20418;-37
2022/01/05 07:52:26;;;;;;;3.43;2.10;;;1.80;99.90;;;;;;5097139;28;20169;-38
2022/01/05 07:54:52;;;;;;;4.73;2.40;;;1.80;99.90;;;;;;5095989;28;20269;-38
2022/01/05 07:57:19;;;;;;;4.77;2.60;;;1.80;99.90;;;;;;5095846;28;20211;-36
2022/01/05 07:59:44;;;;;;;3.33;2.17;;;1.80;99.90;;;;;;5094019;28;20914;-37
2022/01/05 08:02:12;;;;;;;5.60;2.63;;;1.90;99.90;;;;;;5094425;28;20415;-38
2022/01/05 08:04:38;;;;;;;9.83;3.20;;;1.80;99.90;;;;;;5094508;28;20184;-38
2022/01/05 08:07:04;;;;;;;3.73;2.40;;;1.90;99.90;;;;;;5095816;28;20701;-37
2022/01/05 08:09:30;;;;;;;3.30;2.57;;;1.80;99.30;;;;;;5096003;28;20473;-38
2022/01/05 08:11:57;;;;;;;5.20;2.80;;;1.90;99.40;;;;;;5096654;28;20172;-38
2022/01/05 08:14:22;;;;;;;8.47;3.23;;;1.90;99.30;;;;;;5096398;28;20179;-37
2022/01/05 08:16:48;;;;;;;4.83;3.50;;;1.90;99.30;;;;;;5095483;28;20993;-37
2022/01/05 08:19:14;;;;;;;2.73;2.50;;;1.90;99.10;;;;;;5095860;28;20219;-37
2022/01/05 08:21:42;;;;;;;5.50;3.00;;;1.90;99.00;;;;;;5095116;28;20220;-37
2022/01/05 08:24:07;;;;;;;5.70;4.03;;;2.00;99.00;;;;;;5095639;28;20169;-38
2022/01/05 08:26:33;;;;;;;4.23;2.80;;;2.00;99.10;;;;;;5095456;28;20433;-37
2022/01/05 08:28:59;;;;;;;5.97;2.97;;;2.10;98.90;;;;;;5094596;28;20280;-39
2022/01/05 08:31:25;;;;;;;3.13;2.43;;;2.10;98.50;;;;;;5094912;28;20192;-38
2022/01/05 08:33:56;;;;;;;3.77;2.80;;;2.10;98.30;;;;;;5095242;28;20844;-38
2022/01/05 08:36:22;;;;;;;4.37;2.30;;;2.10;97.90;;;;;;5095877;28;20180;-36
2022/01/05 08:38:47;;;;;;;2.70;2.00;;;2.00;96.30;;;;;;5095920;28;20426;-37
2022/01/05 08:41:13;;;;;;;3.93;2.80;;;1.90;96.10;;;;;;5098559;28;20479;-38
2022/01/05 08:43:39;;;;;;;3.40;2.30;;;1.90;96.10;;;;;;5119028;28;20219;-38
2022/01/05 08:46:05;;;;;;;11.27;3.33;;;1.90;96.20;;;;;;5118158;28;20182;-38
2022/01/05 08:48:33;;;;;;;3.20;2.57;;;1.90;95.50;;;;;;5117954;28;20461;-38
2022/01/05 08:50:59;;;;;;;6.23;2.50;;;1.90;95.60;;;;;;5116649;28;20190;-38
2022/01/05 08:53:25;;;;;;;5.43;2.70;;;2.00;95.80;;;;;;5116076;28;20442;-38
2022/01/05 08:55:53;;;;;;;4.13;2.50;;;2.10;95.80;;;;;;5114684;28;20458;-37
2022/01/05 08:58:20;;;;;;;4.37;2.70;;;2.20;95.60;;;;;;5112932;28;20681;-37
2022/01/05 09:00:45;;;;;;;7.70;2.80;;;2.10;95.30;;;;;;5112136;28;20424;-38
2022/01/05 09:03:13;;;;;;;5.37;2.70;;;2.10;95.40;;;;;;5111275;28;20786;-37
2022/01/05 09:05:39;;;;;;;5.07;2.60;;;2.40;94.80;;;;;;5111864;28;20950;-37
2022/01/05 09:08:05;;;;;;;3.63;2.37;;;2.70;94.30;;;;;;5112491;28;20456;-39
2022/01/05 09:10:33;;;;;;;6.43;3.30;;;2.80;93.50;;;;;;5133921;27;21019;-37
2022/01/05 09:12:59;;;;;;;4.17;2.20;;;2.80;92.90;;;;;;5136150;27;20413;-37
2022/01/05 09:15:26;;;;;;;5.83;3.73;;;2.80;92.40;;;;;;5136240;27;20397;-38
2022/01/05 09:17:52;;;;;;;8.10;2.43;;;2.80;92.30;;;;;;5135958;27;20401;-38
2022/01/05 09:20:17;;;;;;;7.17;2.77;;;3.00;91.60;;;;;;5134327;27;20637;-38
2022/01/05 09:22:43;;;;;;;6.27;2.20;;;3.10;91.50;;;;;;5135871;27;20418;-38
2022/01/05 09:25:10;;;;;;;3.77;2.60;;;2.90;90.10;;;;;;5134507;27;20163;-38
2022/01/05 09:27:37;;;;;;;3.30;2.57;;;2.80;89.10;;;;;;5135093;27;20179;-37
2022/01/05 09:30:05;;;;;;;3.73;2.00;;;2.90;88.60;;;;;;5134813;27;20409;-37
2022/01/05 09:32:31;;;;;;;5.33;2.30;;;2.70;87.80;;;;;;5135204;27;20421;-37
2022/01/05 09:34:56;;;;;;;5.03;2.73;;;2.80;88.90;;;;;;5135845;27;20887;-37
2022/01/05 09:37:31;;;;;;;4.80;2.10;;;3.50;89.50;;;;;;5137757;27;20243;-38
2022/01/05 09:42:42;;;;;;;5.13;1.97;;;4.60;83.90;;;;;;5139469;27;20748;-37
2022/01/05 09:45:20;;;;;;;6.80;2.33;;;4.90;80.40;;;;;;5139987;27;20413;-37
2022/01/05 09:47:58;;;;;;;4.33;2.10;;;5.30;77.80;;;;;;5120660;27;20412;-37
2022/01/05 09:50:24;;;;;;;2.50;1.63;;;5.60;76.00;;;;;;5135913;27;20393;-37
2022/01/05 09:52:49;;;;;;;4.53;1.93;;;5.60;74.70;;;;;;5118823;27;20403;-36
2022/01/05 09:55:16;;;;;;;4.60;2.07;;;6.20;76.50;;;;;;5138538;27;20175;-37
2022/01/05 09:57:44;;;;;;;4.73;1.93;;;6.70;73.80;;;;;;5121402;27;20283;-36
2022/01/05 10:00:14;;;;;;;4.77;2.50;;;7.10;69.90;;;;;;5139463;27;20414;-35
2022/01/05 10:02:41;;;;;;;6.73;2.80;;;7.00;67.50;;;;;;5139732;27;20435;-37
2022/01/05 10:05:12;;;;;;;5.80;2.47;;;6.40;67.80;;;;;;5138689;27;20401;-39
2022/01/05 10:07:38;;;;;;;7.80;1.80;;;6.20;70.90;;;;;;5137245;27;20435;-38
2022/01/05 10:10:05;;;;;;;6.23;2.07;;;6.20;70.70;;;;;;5138264;27;20462;-38
2022/01/05 10:12:31;;;;;;;6.47;2.07;;;6.10;72.20;;;;;;5139134;27;20425;-38
2022/01/05 10:14:57;;;;;;;4.23;1.83;;;5.20;70.30;;;;;;5140544;27;20507;-38
2022/01/05 10:17:30;;;;;;;4.90;2.40;;;4.70;72.30;;;;;;5136988;27;20485;-38
2022/01/05 10:20:05;;;;;;;5.40;2.07;;;4.20;73.70;;;;;;5138390;27;20183;-38
2022/01/05 10:22:34;;;;;;;7.40;2.33;;;3.80;75.80;;;;;;5136868;27;20459;-38
2022/01/05 10:25:18;;;;;;;10.33;2.70;;;3.70;76.10;;;;;;5118162;27;20429;-37
2022/01/05 10:27:58;;;;;;;5.40;2.30;;;3.50;76.00;;;;;;5118070;27;20441;-38
2022/01/05 10:30:37;;;;;;;6.83;2.97;;;3.40;76.60;;;;;;5136788;27;20448;-37
2022/01/05 10:33:04;;;;;;;7.27;2.20;;;3.70;76.70;;;;;;5137385;27;20416;-38
2022/01/05 10:35:29;;;;;;;5.13;2.33;;;4.70;75.10;;;;;;5139286;27;20637;-38
2022/01/05 10:37:59;;;;;;;8.47;2.57;;;5.40;72.60;;;;;;5104575;27;20435;-38
2022/01/05 10:40:25;;;;;;;5.73;2.23;;;6.00;71.60;;;;;;5119616;27;20436;-38
2022/01/05 10:42:55;;;;;;;5.30;2.60;;;5.50;68.40;;;;;;5138557;27;20765;-37
2022/01/05 10:45:39;;;;;;;6.23;2.17;;;4.70;68.90;;;;;;5138124;27;20269;-37
2022/01/05 10:48:11;;;;;;;7.93;2.80;;;4.30;71.30;;;;;;5119989;27;21003;-39
2022/01/05 10:50:37;;;;;;;8.43;3.20;;;4.00;73.80;;;;;;5136666;27;20437;-39
2022/01/05 10:53:04;;;;;;;5.30;2.30;;;4.30;74.70;;;;;;5137949;27;20488;-37
2022/01/05 10:55:32;;;;;;;7.97;2.30;;;4.80;73.50;;;;;;5136458;27;20414;-37
2022/01/05 10:58:12;;;;;;;8.20;2.17;;;5.20;71.00;;;;;;5118369;27;20431;-37
2022/01/05 11:00:40;;;;;;;6.33;2.47;;;5.70;68.40;;;;;;5116419;27;20443;-36
2022/01/05 11:03:24;;;;;;;3.90;1.70;;;6.40;66.20;;;;;;5117554;27;20415;-37
2022/01/05 11:06:04;;;;;;;10.00;2.00;;;6.90;63.80;;;;;;5136527;27;20424;-37
2022/01/05 11:08:32;;;;;;;5.90;2.50;;;7.60;62.70;;;;;;5118866;27;20463;-37
2022/01/05 11:11:01;;;;;;;6.47;2.20;;;7.80;60.00;;;;;;5136796;27;20833;-39
2022/01/05 11:13:27;;;;;;;8.43;2.10;;;7.80;59.80;;;;;;5136596;27;20495;-38
2022/01/05 11:15:58;;;;;;;7.77;2.13;;;8.30;59.10;;;;;;5113992;28;20462;-38
2022/01/05 11:18:24;;;;;;;5.90;2.00;;;8.20;59.50;;;;;;5116117;28;20692;-37
2022/01/05 11:21:05;;;;;;;7.90;2.30;;;8.70;57.30;;;;;;5115278;28;20441;-37
2022/01/05 11:23:32;;;;;;;4.10;2.93;;;8.40;56.80;;;;;;5116712;28;20706;-38
2022/01/05 11:26:00;;;;;;;6.57;2.40;;;7.40;56.70;;;;;;5115825;28;20483;-39
2022/01/05 11:28:29;;;;;;;5.40;2.50;;;6.80;58.70;;;;;;5097512;28;20633;-38
2022/01/05 11:30:57;;;;;;;5.77;2.30;;;5.80;60.30;;;;;;5113751;27;20422;-38
2022/01/05 11:33:26;;;;;;;8.13;2.30;;;5.40;63.60;;;;;;5113631;28;20421;-40
2022/01/05 11:35:53;;;;;;;4.83;2.40;;;5.40;65.50;;;;;;5116659;28;20425;-38
2022/01/05 11:38:19;;;;;;;4.93;2.27;;;5.20;66.00;;;;;;5115082;28;20442;-38
2022/01/05 11:40:48;;;;;;;8.30;2.50;;;4.80;66.50;;;;;;5116443;28;20525;-38
2022/01/05 11:43:28;;;;;;;8.43;2.30;;;4.30;67.80;;;;;;5115420;28;20732;-40
2022/01/05 11:45:55;;;;;;;5.03;2.30;;;4.40;70.50;;;;;;5113307;28;20567;-40
2022/01/05 11:48:30;;;;;;;8.27;2.17;;;4.30;70.40;;;;;;5114382;28;20473;-38
2022/01/05 11:51:00;;;;;;;4.77;1.90;;;4.80;70.00;;;;;;5114546;28;20441;-37
2022/01/05 11:53:38;;;;;;;5.50;2.20;;;4.80;69.30;;;;;;5115007;28;20402;-37
2022/01/05 11:56:06;;;;;;;6.73;2.30;;;4.80;70.00;;;;;;5115813;28;20422;-38
2022/01/05 11:58:36;;;;;;;9.10;2.60;;;5.10;71.30;;;;;;5114704;28;20836;-37
2022/01/05 12:01:17;;;;;;;5.83;2.17;;;5.30;71.10;;;;;;5114358;28;20801;-36
2022/01/05 12:04:09;;;;;;;5.53;2.40;;;5.20;68.80;;;;;;5114763;28;20437;-38
2022/01/05 12:07:03;;;;;;;6.70;2.83;;;5.70;67.50;;;;;;5113831;28;20838;-37
2022/01/05 12:09:30;;;;;;;9.70;2.90;;;6.50;67.40;;;;;;5115491;28;20473;-38
2022/01/05 12:12:00;;;;;;;4.57;2.13;;;7.80;62.40;;;;;;5115468;28;20881;-38
2022/01/05 12:14:25;;;;;;;5.00;2.00;;;8.50;60.00;;;;;;5115651;28;20494;-39
2022/01/05 12:17:10;;;;;;;4.37;2.20;;;9.00;56.80;;;;;;5129853;27;20890;-39
2022/01/05 12:19:55;;;;;;;5.63;2.70;;;9.70;56.00;;;;;;5136000;27;20426;-38
2022/01/05 12:22:26;;;;;;;9.00;2.03;;;10.20;55.10;;;;;;5133236;27;21011;-37
2022/01/05 12:25:00;;;;;;;4.50;2.10;;;10.70;52.40;;;;;;5134270;27;20458;-37
2022/01/05 12:27:34;;;;;;;4.50;1.80;;;11.20;51.30;;;;;;5133589;27;20499;-38
2022/01/05 12:30:00;;;;;;;9.70;2.63;;;10.50;50.90;;;;;;5133816;27;20905;-38
2022/01/05 12:32:38;;;;;;;6.73;2.80;;;10.80;51.20;;;;;;5133702;27;20716;-37
2022/01/05 12:35:21;;;;;;;8.70;3.20;;;11.50;50.40;;;;;;5115375;28;20523;-38
2022/01/05 12:37:58;;;;;;;3.63;1.80;;;12.40;49.00;;;;;;5135683;27;20523;-39
2022/01/05 12:40:42;;;;;;;6.17;2.50;;;12.60;47.40;;;;;;5136291;28;20808;-38
2022/01/05 12:43:08;;;;;;;6.13;1.93;;;12.20;46.10;;;;;;5116480;28;20426;-37
2022/01/05 12:45:52;;;;;;;10.07;2.37;;;12.70;45.60;;;;;;5120986;27;20855;-38
2022/01/05 12:48:33;;;;;;;5.67;1.97;;;12.90;45.80;;;;;;5120615;28;20209;-38
2022/01/05 12:51:23;;;;;;;7.90;2.40;;;13.30;44.50;;;;;;5120884;28;20417;-38
2022/01/05 12:54:01;;;;;;;5.37;2.60;;;13.90;44.60;;;;;;5120223;28;20448;-38
2022/01/05 12:57:00;;;;;;;8.53;2.50;;;12.80;43.00;;;;;;5120715;28;20477;-38
2022/01/05 12:59:32;;;;;;;6.90;3.10;;;12.40;42.80;;;;;;5101914;28;20807;-38
2022/01/05 13:02:06;;;;;;;7.70;3.53;;;11.60;43.70;;;;;;5118199;28;20413;-38
2022/01/05 13:04:33;;;;;;;6.50;2.57;;;11.50;44.60;;;;;;5117927;28;20426;-38